Time;durP1;ratioP1;P1;durP2;ratioP2;P2;SDS_P1;SDS_P2;PMS_P1;PMS_P2;Temp;Humidity;BMP_temperature;BMP_pressure;BME280_temperature;BME280_humidity;BME280_pressure;Samples;Min_cycle;Max_cycle;Signal;HPM_P1;HPM_P2
2022/06/01 00:00:08;;;;;;;7.73;5.90;;;;;;;9.70;100.00;100589.56;690751;28;1029;-44
2022/06/01 00:00:29;;;;;;;7.18;6.03;;;;;;;9.64;100.00;100595.66;690622;28;1183;-45
2022/06/01 00:00:50;;;;;;;7.70;6.13;;;;;;;9.61;100.00;100587.84;688981;28;1088;-44
2022/06/01 00:01:11;;;;;;;8.15;6.35;;;;;;;9.63;100.00;100587.84;685154;28;4294;-44
2022/06/01 00:01:32;;;;;;;7.07;5.90;;;;;;;9.64;100.00;100585.22;685283;28;1880;-44
2022/06/01 00:01:52;;;;;;;7.95;5.80;;;;;;;9.65;100.00;100596.50;686292;28;1316;-43
2022/06/01 00:02:13;;;;;;;8.60;5.63;;;;;;;9.64;100.00;100587.81;686663;28;1139;-44
2022/06/01 00:02:36;;;;;;;7.18;5.80;;;;;;;9.63;100.00;100587.84;683344;28;1283;-44
2022/06/01 00:02:57;;;;;;;6.88;5.75;;;;;;;9.64;100.00;100581.75;684229;28;1139;-44
2022/06/01 00:03:17;;;;;;;8.38;5.75;;;;;;;9.65;100.00;100586.06;683571;28;1243;-45
2022/06/01 00:03:40;;;;;;;7.57;5.53;;;;;;;9.62;100.00;100580.88;685191;28;1286;-45
2022/06/01 00:04:01;;;;;;;7.82;6.20;;;;;;;9.54;100.00;100584.38;685758;28;4465;-46
2022/06/01 00:04:21;;;;;;;8.00;6.37;;;;;;;9.56;100.00;100588.72;688559;28;1344;-45
2022/06/01 00:04:42;;;;;;;8.05;6.20;;;;;;;9.56;100.00;100589.59;686312;28;1429;-45
2022/06/01 00:05:04;;;;;;;7.60;6.20;;;;;;;9.59;100.00;100586.97;687330;28;1302;-44
2022/06/01 00:05:25;;;;;;;7.28;5.82;;;;;;;9.61;100.00;100586.94;686763;28;1310;-44
2022/06/01 00:05:46;;;;;;;7.13;5.78;;;;;;;9.61;100.00;100589.56;686804;28;1437;-43
2022/06/01 00:06:06;;;;;;;6.87;5.70;;;;;;;9.61;100.00;100585.22;683655;28;1453;-43
2022/06/01 00:06:27;;;;;;;7.07;5.70;;;;;;;9.59;100.00;100593.94;684095;28;989;-45
2022/06/01 00:06:47;;;;;;;7.87;6.27;;;;;;;9.57;100.00;100583.50;685699;28;1204;-43
2022/06/01 00:07:08;;;;;;;7.97;6.03;;;;;;;9.54;100.00;100581.75;688367;28;4395;-44
2022/06/01 00:07:30;;;;;;;7.07;5.93;;;;;;;9.48;100.00;100583.50;688974;28;1162;-47
2022/06/01 00:07:51;;;;;;;6.70;5.97;;;;;;;9.44;100.00;100585.28;688058;28;1080;-44
2022/06/01 00:08:11;;;;;;;7.18;5.88;;;;;;;9.47;100.00;100581.75;689150;28;1210;-43
2022/06/01 00:08:32;;;;;;;6.70;5.90;;;;;;;9.48;100.00;100586.97;689872;28;1328;-43
2022/06/01 00:08:53;;;;;;;8.20;6.22;;;;;;;9.49;100.00;100586.09;685255;28;1151;-44
2022/06/01 00:09:13;;;;;;;7.03;5.97;;;;;;;9.48;100.00;100586.97;683092;28;1188;-45
2022/06/01 00:09:34;;;;;;;6.97;5.90;;;;;;;9.50;100.00;100582.63;683236;28;1124;-44
2022/06/01 00:09:55;;;;;;;8.23;6.05;;;;;;;9.47;100.00;100582.66;683739;28;1141;-43
2022/06/01 00:10:16;;;;;;;7.28;6.32;;;;;;;9.40;100.00;100585.25;683544;28;4347;-44
2022/06/01 00:10:37;;;;;;;7.73;6.27;;;;;;;9.36;100.00;100577.44;684426;28;1338;-45
2022/06/01 00:10:58;;;;;;;7.60;6.03;;;;;;;9.40;100.00;100580.94;687666;28;1965;-44
2022/06/01 00:11:19;;;;;;;7.90;6.20;;;;;;;9.41;100.00;100577.41;686181;28;1166;-44
2022/06/01 00:11:39;;;;;;;8.33;5.80;;;;;;;9.42;100.00;100580.91;685811;28;1245;-43
2022/06/01 00:11:59;;;;;;;7.97;5.93;;;;;;;9.43;100.00;100580.03;685918;28;1117;-43
2022/06/01 00:12:21;;;;;;;9.20;5.97;;;;;;;9.43;100.00;100586.13;687100;28;1289;-44
2022/06/01 00:12:42;;;;;;;7.63;5.93;;;;;;;9.47;100.00;100576.53;687662;28;1270;-44
2022/06/01 00:13:03;;;;;;;6.60;5.70;;;;;;;9.48;100.00;100576.53;683857;28;4621;-44
2022/06/01 00:13:24;;;;;;;6.47;5.75;;;;;;;9.49;100.00;100578.28;685134;28;1406;-43
2022/06/01 00:13:45;;;;;;;7.05;5.68;;;;;;;9.49;100.00;100572.19;684474;28;1485;-46
2022/06/01 00:14:07;;;;;;;7.30;5.73;;;;;;;9.48;100.00;100568.72;684688;28;1112;-44
2022/06/01 00:14:27;;;;;;;7.70;5.80;;;;;;;9.47;100.00;100579.16;683172;28;1404;-44
2022/06/01 00:14:47;;;;;;;7.03;6.25;;;;;;;9.44;100.00;100584.38;683186;28;1465;-47
2022/06/01 00:15:09;;;;;;;6.97;6.10;;;;;;;9.40;100.00;100575.72;689433;28;1417;-43
2022/06/01 00:15:30;;;;;;;7.45;6.10;;;;;;;9.41;100.00;100577.41;687824;28;1217;-45
2022/06/01 00:15:51;;;;;;;7.28;5.78;;;;;;;9.43;100.00;100574.81;688188;28;1057;-45
2022/06/01 00:16:11;;;;;;;6.70;5.55;;;;;;;9.42;100.00;100573.94;689322;28;4253;-44
2022/06/01 00:16:32;;;;;;;7.10;5.85;;;;;;;9.41;100.00;100579.19;690172;28;3639;-45
2022/06/01 00:16:55;;;;;;;7.77;6.10;;;;;;;9.41;100.00;100577.41;689118;28;1047;-44
2022/06/01 00:17:16;;;;;;;7.40;6.13;;;;;;;9.39;100.00;100573.97;686552;28;1613;-45
2022/06/01 00:17:36;;;;;;;7.00;6.13;;;;;;;9.38;100.00;100572.22;687856;28;1321;-43
2022/06/01 00:17:58;;;;;;;6.97;6.22;;;;;;;9.40;100.00;100573.09;686596;28;1178;-44
2022/06/01 00:18:19;;;;;;;8.27;6.28;;;;;;;9.42;100.00;100571.34;687417;28;1246;-45
2022/06/01 00:18:40;;;;;;;7.80;6.00;;;;;;;9.43;100.00;100570.47;688051;28;1377;-43
2022/06/01 00:19:00;;;;;;;7.30;5.97;;;;;;;9.43;100.00;100565.25;689650;28;4409;-44
2022/06/01 00:19:22;;;;;;;6.60;5.70;;;;;;;9.41;100.00;100569.59;689473;28;1396;-44
2022/06/01 00:19:43;;;;;;;7.00;5.85;;;;;;;9.40;100.00;100569.59;688458;28;1452;-44
2022/06/01 00:20:04;;;;;;;8.15;6.20;;;;;;;9.38;100.00;100565.25;689162;28;1336;-43
2022/06/01 00:20:25;;;;;;;6.80;5.78;;;;;;;9.42;100.00;100571.34;689270;28;1393;-44
2022/06/01 00:20:46;;;;;;;6.70;5.50;;;;;;;9.45;100.00;100567.88;689426;28;1421;-44
2022/06/01 00:21:07;;;;;;;6.90;5.80;;;;;;;9.48;100.00;100570.47;687604;28;1393;-44
2022/06/01 00:21:29;;;;;;;6.70;5.80;;;;;;;9.47;100.00;100569.59;688007;28;1413;-44
2022/06/01 00:22:28;;;;;;;7.32;6.15;;;;;;;9.32;100.00;100569.63;685430;28;4937;-45
2022/06/01 00:22:48;;;;;;;7.27;6.00;;;;;;;9.28;100.00;100563.53;686024;28;1130;-44
2022/06/01 00:23:09;;;;;;;7.50;6.38;;;;;;;9.30;100.00;100563.53;689780;28;1136;-43
2022/06/01 00:23:30;;;;;;;7.37;5.90;;;;;;;9.34;100.00;100565.25;687938;28;1214;-44
2022/06/01 00:23:50;;;;;;;7.50;5.95;;;;;;;9.35;100.00;100569.63;688882;28;1368;-43
2022/06/01 00:24:10;;;;;;;7.10;5.90;;;;;;;9.36;100.00;100568.75;688657;28;1251;-45
2022/06/01 00:24:31;;;;;;;7.50;6.10;;;;;;;9.36;100.00;100567.00;689959;28;1253;-44
2022/06/01 00:24:51;;;;;;;7.50;6.00;;;;;;;9.37;100.00;100570.47;687690;28;1562;-45
2022/06/01 00:25:13;;;;;;;7.33;6.13;;;;;;;9.36;100.00;100569.63;687808;28;4515;-44
2022/06/01 00:25:34;;;;;;;7.57;6.03;;;;;;;9.34;100.00;100566.13;687380;28;1143;-43
2022/06/01 00:25:55;;;;;;;8.00;6.22;;;;;;;9.35;100.00;100572.22;688039;28;1055;-43
2022/06/01 00:26:16;;;;;;;7.95;6.20;;;;;;;9.34;100.00;100563.50;688183;28;1142;-45
2022/06/01 00:26:36;;;;;;;7.05;5.93;;;;;;;9.33;100.00;100563.50;688415;28;1178;-45
2022/06/01 00:26:57;;;;;;;8.10;6.23;;;;;;;9.30;100.00;100568.75;688380;28;1116;-47
2022/06/01 00:27:18;;;;;;;7.57;6.60;;;;;;;9.25;100.00;100565.25;688000;28;1247;-45
2022/06/01 00:27:39;;;;;;;7.90;6.70;;;;;;;9.21;100.00;100564.41;689685;28;1268;-46
2022/06/01 00:27:59;;;;;;;8.25;6.63;;;;;;;9.22;100.00;100560.94;685661;28;4316;-45
2022/06/01 00:28:20;;;;;;;7.67;6.40;;;;;;;9.24;100.00;100574.84;685737;28;1178;-44
2022/06/01 00:28:40;;;;;;;8.18;6.20;;;;;;;9.24;100.00;100567.00;682801;28;1727;-43
2022/06/01 00:29:01;;;;;;;7.93;6.10;;;;;;;9.16;100.00;100569.63;684219;28;1395;-44
2022/06/01 00:29:21;;;;;;;7.47;6.47;;;;;;;9.13;100.00;100571.38;681102;28;1189;-43
2022/06/01 00:29:42;;;;;;;8.00;6.63;;;;;;;9.14;100.00;100570.50;681195;28;1223;-45
2022/06/01 00:30:04;;;;;;;9.40;6.50;;;;;;;9.15;100.00;100567.00;681626;28;1353;-43
2022/06/01 00:30:26;;;;;;;8.18;6.38;;;;;;;9.15;100.00;100573.13;682983;28;906;-45
2022/06/01 00:30:46;;;;;;;7.10;6.05;;;;;;;9.15;100.00;100569.63;679414;28;1322;-43
2022/06/01 00:31:07;;;;;;;7.23;6.00;;;;;;;9.15;100.00;100567.91;684936;28;4420;-47
2022/06/01 00:31:27;;;;;;;7.70;6.25;;;;;;;9.14;100.00;100568.75;687713;28;1492;-43
2022/06/01 00:31:48;;;;;;;7.87;6.40;;;;;;;9.11;100.00;100566.16;690285;28;1048;-43
2022/06/01 00:32:14;;;;;;;7.95;6.57;;;;;;;9.07;100.00;100569.63;689147;28;1038;-44
2022/06/01 00:32:34;;;;;;;7.68;6.47;;;;;;;9.10;100.00;100572.25;688473;28;1207;-44
2022/06/01 00:32:55;;;;;;;7.80;6.60;;;;;;;9.08;100.00;100568.75;689133;28;1313;-45
2022/06/01 00:33:15;;;;;;;8.65;6.43;;;;;;;9.10;100.00;100572.25;687979;28;1254;-44
2022/06/01 00:33:36;;;;;;;7.70;6.20;;;;;;;9.11;100.00;100574.00;689359;28;1290;-43
2022/06/01 00:33:57;;;;;;;7.40;6.32;;;;;;;9.13;100.00;100572.22;688282;28;1059;-45
2022/06/01 00:34:17;;;;;;;7.57;6.63;;;;;;;9.15;100.00;100578.34;687218;28;4324;-44
2022/06/01 00:34:39;;;;;;;8.00;6.70;;;;;;;9.17;100.00;100573.13;690249;28;1144;-45
2022/06/01 00:35:00;;;;;;;9.93;6.40;;;;;;;9.13;100.00;100569.63;689026;28;1108;-44
2022/06/01 00:35:23;;;;;;;8.98;6.60;;;;;;;9.13;100.00;100573.97;688566;28;1314;-45
2022/06/01 00:35:43;;;;;;;8.43;6.18;;;;;;;9.12;100.00;100574.84;688143;28;1267;-44
2022/06/01 00:36:06;;;;;;;8.30;6.60;;;;;;;9.11;100.00;100571.38;687698;28;1275;-43
2022/06/01 00:36:26;;;;;;;7.53;6.57;;;;;;;9.13;100.00;100576.59;687488;28;1332;-44
2022/06/01 00:36:46;;;;;;;8.13;6.67;;;;;;;9.13;100.00;100571.38;687527;28;1362;-45
2022/06/01 00:37:10;;;;;;;7.80;7.00;;;;;;;9.08;100.00;100571.34;686778;28;4292;-45
2022/06/01 00:37:31;;;;;;;7.10;6.40;;;;;;;9.07;100.00;100567.03;687294;28;1202;-44
2022/06/01 00:37:52;;;;;;;7.27;6.27;;;;;;;9.08;100.00;100576.56;687128;28;1199;-43
2022/06/01 00:38:12;;;;;;;7.07;5.97;;;;;;;9.05;100.00;100573.97;687425;28;1089;-45
2022/06/01 00:38:32;;;;;;;7.40;6.10;;;;;;;9.05;100.00;100566.16;688678;28;1179;-43
2022/06/01 00:38:53;;;;;;;7.60;6.20;;;;;;;9.02;100.00;100568.75;692231;28;1393;-44
2022/06/01 00:39:13;;;;;;;9.03;6.87;;;;;;;8.97;100.00;100571.38;687634;28;1112;-44
2022/06/01 00:39:35;;;;;;;9.43;6.80;;;;;;;8.96;100.00;100564.41;688899;28;1336;-44
2022/06/01 00:39:56;;;;;;;9.15;6.72;;;;;;;8.97;100.00;100568.78;689770;28;1134;-43
2022/06/01 00:40:19;;;;;;;8.53;6.80;;;;;;;8.93;100.00;100566.13;688982;28;4269;-44
2022/06/01 00:40:39;;;;;;;8.63;6.50;;;;;;;8.91;100.00;100570.50;686953;28;1317;-44
2022/06/01 00:41:00;;;;;;;9.13;6.70;;;;;;;8.90;100.00;100568.75;688216;28;1220;-43
2022/06/01 00:41:20;;;;;;;8.02;6.55;;;;;;;8.93;100.00;100568.75;687044;28;1412;-44
2022/06/01 00:41:41;;;;;;;7.27;6.47;;;;;;;8.95;100.00;100567.88;689065;28;1250;-43
2022/06/01 00:42:12;;;;;;;7.60;6.57;;;;;;;9.01;100.00;100567.91;687417;28;1287;-45
2022/06/01 00:42:34;;;;;;;7.95;6.30;;;;;;;9.04;100.00;100574.81;684071;28;1175;-43
2022/06/01 00:42:58;;;;;;;6.95;6.20;;;;;;;9.07;100.00;100577.47;681298;28;1082;-45
2022/06/01 00:43:42;;;;;;;7.97;7.18;;;;;;;9.05;100.00;100568.75;683034;28;4503;-43
2022/06/01 00:44:02;;;;;;;7.30;6.53;;;;;;;9.07;100.00;100573.97;686614;28;1211;-44
2022/06/01 00:44:23;;;;;;;6.93;6.22;;;;;;;9.03;100.00;100567.91;686755;28;1171;-45
2022/06/01 00:44:45;;;;;;;7.50;6.50;;;;;;;8.96;100.00;100571.38;686987;28;1390;-43
2022/06/01 00:45:08;;;;;;;7.65;6.35;;;;;;;8.94;100.00;100565.28;685243;28;1247;-44
2022/06/01 00:45:30;;;;;;;7.93;6.15;;;;;;;8.93;100.00;100576.56;686156;28;1083;-45
2022/06/01 00:45:52;;;;;;;8.50;6.32;;;;;;;8.91;100.00;100575.72;688053;28;1232;-44
2022/06/01 00:46:13;;;;;;;8.27;6.57;;;;;;;8.88;100.00;100571.38;687761;28;4533;-43
2022/06/01 00:46:33;;;;;;;8.05;6.60;;;;;;;8.88;100.00;100565.28;687169;28;1301;-45
2022/06/01 00:46:54;;;;;;;8.27;6.40;;;;;;;8.89;100.00;100572.22;687603;28;1079;-43
2022/06/01 00:47:18;;;;;;;8.63;6.80;;;;;;;8.93;100.00;100573.97;686711;28;1291;-46
2022/06/01 00:47:38;;;;;;;7.60;6.30;;;;;;;8.93;100.00;100574.84;687161;28;1215;-44
2022/06/01 00:47:59;;;;;;;8.10;6.40;;;;;;;8.89;100.00;100569.63;687996;28;1152;-45
2022/06/01 00:48:22;;;;;;;7.97;6.63;;;;;;;8.89;100.00;100567.91;688439;28;1234;-43
2022/06/01 00:48:52;;;;;;;7.38;6.35;;;;;;;8.83;100.00;100571.38;687925;28;1222;-43
2022/06/01 00:49:17;;;;;;;7.90;6.93;;;;;;;8.79;100.00;100572.25;688834;28;4927;-43
2022/06/01 00:49:41;;;;;;;7.72;6.70;;;;;;;8.79;100.00;100577.44;687721;28;1215;-43
2022/06/01 00:50:30;;;;;;;7.78;6.72;;;;;;;8.84;100.00;100572.22;689377;28;1147;-44
2022/06/01 00:50:51;;;;;;;8.52;6.65;;;;;;;8.84;100.00;100575.69;686720;28;1858;-45
2022/06/01 00:51:14;;;;;;;8.30;6.60;;;;;;;8.88;100.00;100575.72;688626;28;1961;-45
2022/06/01 00:51:35;;;;;;;8.38;6.65;;;;;;;8.91;100.00;100576.56;689530;28;1159;-44
2022/06/01 00:51:56;;;;;;;7.85;6.22;;;;;;;8.94;100.00;100575.72;688629;28;1359;-47
2022/06/01 00:52:16;;;;;;;7.83;6.40;;;;;;;8.95;100.00;100578.31;688368;28;4248;-45
2022/06/01 00:52:45;;;;;;;8.18;6.70;;;;;;;8.95;100.00;100572.25;689768;28;1503;-44
2022/06/01 00:53:10;;;;;;;8.18;6.40;;;;;;;8.91;100.00;100578.31;688305;28;1365;-45
2022/06/01 00:53:36;;;;;;;7.55;6.50;;;;;;;8.91;100.00;100578.31;690149;28;1304;-44
2022/06/01 00:53:58;;;;;;;9.02;6.70;;;;;;;8.95;100.00;100575.72;689566;28;1014;-45
2022/06/01 00:54:18;;;;;;;8.20;6.80;;;;;;;8.91;100.00;100581.78;689584;28;1317;-45
2022/06/01 00:54:41;;;;;;;8.40;6.43;;;;;;;8.94;100.00;100579.19;687727;28;1250;-44
2022/06/01 00:55:15;;;;;;;9.10;6.47;;;;;;;8.90;100.00;100574.81;684975;28;4630;-44
2022/06/01 00:55:40;;;;;;;16.13;7.13;;;;;;;8.89;100.00;100577.44;686698;28;1231;-45
2022/06/01 00:56:06;;;;;;;7.03;6.25;;;;;;;8.92;100.00;100577.47;684000;28;1295;-45
2022/06/01 00:56:32;;;;;;;8.00;6.00;;;;;;;8.92;100.00;100580.94;685691;28;1370;-45
2022/06/01 00:56:58;;;;;;;8.25;6.47;;;;;;;8.91;100.00;100575.72;689003;28;1466;-43
2022/06/01 00:57:18;;;;;;;8.60;6.57;;;;;;;8.85;100.00;100574.84;687341;28;1279;-43
2022/06/01 00:57:41;;;;;;;8.25;6.65;;;;;;;8.86;100.00;100578.28;686822;28;1334;-44
2022/06/01 00:58:07;;;;;;;6.90;6.13;;;;;;;8.90;100.00;100576.56;689675;28;4388;-46
2022/06/01 00:58:35;;;;;;;7.38;6.47;;;;;;;8.92;100.00;100577.47;688534;28;1382;-44
2022/06/01 00:58:58;;;;;;;8.13;6.78;;;;;;;8.88;100.00;100575.72;689627;28;1606;-47
2022/06/01 00:59:22;;;;;;;7.80;6.32;;;;;;;8.83;100.00;100573.09;688331;28;1215;-47
2022/06/01 00:59:45;;;;;;;7.97;6.65;;;;;;;8.82;100.00;100580.06;688368;28;1297;-46
2022/06/01 01:00:12;;;;;;;7.97;6.90;;;;;;;8.84;100.00;100575.69;688611;28;1461;-45
2022/06/01 01:00:33;;;;;;;7.82;6.50;;;;;;;8.86;100.00;100573.09;688304;28;1357;-48
2022/06/01 01:00:56;;;;;;;7.72;6.68;;;;;;;8.86;100.00;100575.69;684843;28;1053;-50
2022/06/01 01:01:19;;;;;;;7.40;6.53;;;;;;;8.85;100.00;100572.22;685786;28;4411;-48
2022/06/01 01:01:41;;;;;;;7.88;6.53;;;;;;;8.83;100.00;100573.97;686075;28;1325;-48
2022/06/01 01:02:04;;;;;;;7.85;6.40;;;;;;;8.81;100.00;100575.69;684932;28;1242;-50
2022/06/01 01:02:25;;;;;;;7.93;6.40;;;;;;;8.86;100.00;100581.78;685613;28;1377;-45
2022/06/01 01:02:47;;;;;;;7.20;6.30;;;;;;;8.88;100.00;100579.19;685485;28;1290;-46
2022/06/01 01:03:10;;;;;;;7.65;6.32;;;;;;;8.89;100.00;100582.66;687001;28;1418;-45
2022/06/01 01:03:34;;;;;;;7.90;6.40;;;;;;;8.89;100.00;100580.03;686202;28;1269;-52
2022/06/01 01:03:57;;;;;;;7.47;6.40;;;;;;;8.86;100.00;100579.19;688580;28;1144;-47
2022/06/01 01:04:18;;;;;;;7.63;6.18;;;;;;;8.86;100.00;100578.28;689495;28;4272;-47
2022/06/01 01:04:41;;;;;;;8.07;6.72;;;;;;;8.83;100.00;100578.31;690400;28;1302;-48
2022/06/01 01:05:05;;;;;;;7.93;6.88;;;;;;;8.79;100.00;100571.34;689326;28;1274;-48
2022/06/01 01:05:25;;;;;;;8.55;6.72;;;;;;;8.74;100.00;100576.56;691378;28;1469;-47
2022/06/01 01:05:51;;;;;;;8.30;6.80;;;;;;;8.73;100.00;100574.81;690965;28;1290;-46
2022/06/01 01:06:23;;;;;;;7.82;6.80;;;;;;;8.71;100.00;100573.97;690977;28;1219;-47
2022/06/01 01:06:44;;;;;;;8.00;6.65;;;;;;;8.76;100.00;100571.34;690873;28;1429;-47
2022/06/01 01:07:06;;;;;;;8.07;6.70;;;;;;;8.78;100.00;100578.31;686379;28;4416;-49
2022/06/01 01:07:27;;;;;;;7.68;6.40;;;;;;;8.78;100.00;100569.63;687004;28;1449;-45
2022/06/01 01:07:51;;;;;;;8.30;6.50;;;;;;;8.78;100.00;100575.69;686739;28;1476;-48
2022/06/01 01:08:12;;;;;;;8.27;6.75;;;;;;;8.77;100.00;100571.34;684310;28;1282;-48
2022/06/01 01:08:32;;;;;;;7.55;6.55;;;;;;;8.76;100.00;100581.78;685422;28;1208;-48
2022/06/01 01:08:54;;;;;;;7.72;6.93;;;;;;;8.75;100.00;100574.81;686062;28;1203;-47
2022/06/01 01:09:15;;;;;;;7.38;6.60;;;;;;;8.75;100.00;100580.03;690160;28;1306;-48
2022/06/01 01:09:36;;;;;;;8.98;6.80;;;;;;;8.75;100.00;100575.69;686509;28;1293;-48
2022/06/01 01:09:56;;;;;;;8.70;6.57;;;;;;;8.78;100.00;100573.09;687568;28;1116;-47
2022/06/01 01:10:18;;;;;;;7.88;6.65;;;;;;;8.75;100.00;100575.69;690019;28;4770;-46
2022/06/01 01:10:40;;;;;;;7.40;6.70;;;;;;;8.75;100.00;100574.81;689522;28;1251;-51
2022/06/01 01:11:00;;;;;;;8.48;6.90;;;;;;;8.74;100.00;100579.16;690763;28;1954;-45
2022/06/01 01:11:32;;;;;;;8.83;6.67;;;;;;;8.74;100.00;100573.97;689406;28;1289;-47
2022/06/01 01:11:55;;;;;;;9.05;6.80;;;;;;;8.74;100.00;100576.56;689616;28;1352;-46
2022/06/01 01:12:16;;;;;;;9.13;6.80;;;;;;;8.66;100.00;100581.75;689558;28;1211;-49
2022/06/01 01:13:20;;;;;;;8.90;6.43;;;;;;;8.63;100.00;100586.97;687475;28;1384;-45
2022/06/01 01:13:23;;;;;;;6.93;6.18;;;;;;;8.68;100.00;100584.34;685508;28;4828;-45
2022/06/01 01:13:46;;;;;;;7.45;6.32;;;;;;;8.71;100.00;100583.50;685775;28;1400;-50
2022/06/01 01:14:07;;;;;;;7.88;6.60;;;;;;;8.70;100.00;100582.63;687249;28;1460;-46
2022/06/01 01:14:30;;;;;;;8.00;6.50;;;;;;;8.71;100.00;100576.56;687234;28;1380;-44
2022/06/01 01:14:51;;;;;;;8.60;6.30;;;;;;;8.73;100.00;100585.25;687484;28;1177;-47
2022/06/01 01:15:11;;;;;;;7.97;6.70;;;;;;;8.70;100.00;100574.81;686957;28;1159;-45
2022/06/01 01:15:34;;;;;;;8.83;6.50;;;;;;;8.71;100.00;100581.78;686690;28;1290;-44
2022/06/01 01:15:55;;;;;;;7.70;6.35;;;;;;;8.71;100.00;100584.38;686808;28;1134;-43
2022/06/01 01:16:16;;;;;;;8.00;6.70;;;;;;;8.72;100.00;100585.25;688896;28;4348;-44
2022/06/01 01:16:37;;;;;;;7.78;6.45;;;;;;;8.74;100.00;100584.38;687938;28;1235;-44
2022/06/01 01:16:59;;;;;;;7.70;6.43;;;;;;;8.73;100.00;100584.38;688041;28;1207;-45
2022/06/01 01:17:21;;;;;;;7.95;6.75;;;;;;;8.65;100.00;100580.03;689348;28;1923;-45
2022/06/01 01:17:42;;;;;;;7.45;6.55;;;;;;;8.63;100.00;100580.91;688965;28;1345;-44
2022/06/01 01:18:06;;;;;;;7.72;6.50;;;;;;;8.63;100.00;100583.50;689132;28;1154;-44
2022/06/01 01:18:29;;;;;;;8.07;6.60;;;;;;;8.62;100.00;100584.34;688260;28;1405;-44
2022/06/01 01:18:51;;;;;;;7.57;6.78;;;;;;;8.59;100.00;100577.41;687151;28;1195;-45
2022/06/01 01:19:46;;;;;;;7.95;6.90;;;;;;;8.62;100.00;100584.34;684200;28;4303;-44
2022/06/01 01:20:08;;;;;;;7.55;6.50;;;;;;;8.64;100.00;100583.50;674069;29;2298;-43
2022/06/01 01:20:28;;;;;;;7.47;6.38;;;;;;;8.65;100.00;100584.34;678185;28;1292;-43
2022/06/01 01:21:01;;;;;;;8.07;6.30;;;;;;;8.65;100.00;100584.34;683586;28;1374;-44
2022/06/01 01:21:33;;;;;;;9.18;6.45;;;;;;;8.66;100.00;100586.97;687715;28;1008;-44
2022/06/01 01:21:58;;;;;;;8.18;6.43;;;;;;;8.68;100.00;100584.34;686461;28;1150;-45
2022/06/01 01:22:39;;;;;;;7.32;6.32;;;;;;;8.69;100.00;100583.50;686766;28;4428;-45
2022/06/01 01:23:12;;;;;;;8.10;6.43;;;;;;;8.64;100.00;100588.72;689727;28;1020;-42
2022/06/01 01:23:51;;;;;;;7.30;6.38;;;;;;;8.67;100.00;100593.91;688669;28;2120;-43
2022/06/01 01:24:28;;;;;;;8.05;6.60;;;;;;;8.70;100.00;100590.47;688294;28;1285;-43
2022/06/01 01:25:13;;;;;;;8.43;6.80;;;;;;;8.71;100.00;100592.19;688274;28;1340;-45
2022/06/01 01:25:38;;;;;;;7.38;6.40;;;;;;;8.71;100.00;100584.38;689745;28;4967;-44
2022/06/01 01:26:01;;;;;;;7.60;6.57;;;;;;;8.71;100.00;100588.72;691911;28;1079;-46
2022/06/01 01:26:23;;;;;;;7.57;6.78;;;;;;;8.71;100.00;100586.09;690486;28;1202;-43
2022/06/01 01:26:48;;;;;;;7.70;6.72;;;;;;;8.72;100.00;100588.72;689081;28;1258;-44
2022/06/01 01:27:09;;;;;;;7.00;6.28;;;;;;;8.73;100.00;100595.66;688412;28;1520;-45
2022/06/01 01:27:30;;;;;;;7.22;6.43;;;;;;;8.71;100.00;100588.72;688772;28;1115;-45
2022/06/01 01:27:54;;;;;;;8.32;7.00;;;;;;;8.63;100.00;100586.97;688868;28;1091;-45
2022/06/01 01:28:14;;;;;;;8.68;7.10;;;;;;;8.60;100.00;100583.47;688044;28;4708;-45
2022/06/01 01:28:35;;;;;;;9.00;7.03;;;;;;;8.58;100.00;100583.47;688215;28;1112;-43
2022/06/01 01:28:55;;;;;;;8.90;7.03;;;;;;;8.60;100.00;100581.75;690230;28;1258;-44
2022/06/01 01:29:28;;;;;;;8.10;6.80;;;;;;;8.61;100.00;100580.91;688528;28;1389;-45
2022/06/01 01:29:49;;;;;;;8.20;6.50;;;;;;;8.63;100.00;100580.91;689496;28;1072;-43
2022/06/01 01:30:37;;;;;;;8.43;6.85;;;;;;;8.64;100.00;100574.78;689161;28;1521;-43
2022/06/01 01:31:04;;;;;;;8.02;6.20;;;;;;;8.69;100.00;100571.34;688396;28;1640;-43
2022/06/01 01:31:25;;;;;;;8.77;6.63;;;;;;;8.73;100.00;100573.97;689216;28;6208;-42
2022/06/01 01:31:46;;;;;;;9.75;6.50;;;;;;;8.72;100.00;100573.06;690399;28;1329;-43
2022/06/01 01:32:08;;;;;;;7.78;6.30;;;;;;;8.72;100.00;100570.47;691052;28;1214;-46
2022/06/01 01:32:29;;;;;;;7.97;6.13;;;;;;;8.72;100.00;100569.59;686658;28;1517;-42
2022/06/01 01:32:49;;;;;;;7.50;5.88;;;;;;;8.72;100.00;100565.25;687107;28;1179;-43
2022/06/01 01:33:28;;;;;;;7.00;6.10;;;;;;;8.75;100.00;100567.00;689545;28;1079;-44
2022/06/01 01:33:52;;;;;;;7.22;6.10;;;;;;;8.71;100.00;100568.75;689735;28;1377;-42
2022/06/01 01:34:12;;;;;;;8.38;6.22;;;;;;;8.71;100.00;100565.25;687604;28;5117;-44
2022/06/01 01:34:35;;;;;;;8.23;6.10;;;;;;;8.68;100.00;100566.13;689164;28;1234;-44
2022/06/01 01:34:56;;;;;;;7.70;6.30;;;;;;;8.67;100.00;100572.22;689619;28;1175;-43
2022/06/01 01:35:16;;;;;;;7.77;6.13;;;;;;;8.67;100.00;100577.44;688362;28;1285;-42
2022/06/01 01:35:37;;;;;;;8.45;6.20;;;;;;;8.65;100.00;100566.13;686554;28;1400;-43
2022/06/01 01:36:07;;;;;;;8.67;6.20;;;;;;;8.63;100.00;100568.72;686473;28;1615;-43
2022/06/01 01:36:35;;;;;;;7.50;6.13;;;;;;;8.62;100.00;100573.94;685710;28;1410;-43
2022/06/01 01:37:02;;;;;;;6.70;5.88;;;;;;;8.64;100.00;100569.56;686483;28;1238;-43
2022/06/01 01:37:27;;;;;;;7.55;5.95;;;;;;;8.64;100.00;100569.56;688632;28;4796;-43
2022/06/01 01:37:51;;;;;;;7.53;6.22;;;;;;;8.62;100.00;100569.59;688889;28;1384;-43
2022/06/01 01:38:38;;;;;;;7.43;6.05;;;;;;;8.64;100.00;100572.19;687493;28;1210;-43
2022/06/01 01:39:09;;;;;;;7.22;6.40;;;;;;;8.62;100.00;100573.94;685246;28;1193;-44
2022/06/01 01:39:31;;;;;;;7.63;6.28;;;;;;;8.62;100.00;100568.72;687812;28;1568;-43
2022/06/01 01:39:53;;;;;;;8.13;6.13;;;;;;;8.59;100.00;100568.72;686340;28;1093;-42
2022/06/01 01:40:13;;;;;;;8.82;6.53;;;;;;;8.52;100.00;100568.69;687849;28;4280;-43
2022/06/01 01:40:34;;;;;;;7.80;6.33;;;;;;;8.49;100.00;100573.91;689485;28;1376;-42
2022/06/01 01:41:24;;;;;;;7.57;6.47;;;;;;;8.50;100.00;100572.16;688890;28;1060;-44
2022/06/01 01:41:46;;;;;;;6.88;6.03;;;;;;;8.50;100.00;100567.84;688954;28;1294;-44
2022/06/01 01:42:06;;;;;;;7.82;6.53;;;;;;;8.53;100.00;100566.97;688116;28;1315;-44
2022/06/01 01:42:27;;;;;;;7.57;6.03;;;;;;;8.57;100.00;100575.66;689761;28;1243;-42
2022/06/01 01:42:49;;;;;;;7.30;6.40;;;;;;;8.58;100.00;100572.19;689594;28;1365;-44
2022/06/01 01:43:11;;;;;;;8.35;6.28;;;;;;;8.57;100.00;100565.22;687350;28;5164;-43
2022/06/01 01:43:34;;;;;;;8.90;6.25;;;;;;;8.56;100.00;100572.19;687741;28;1115;-43
2022/06/01 01:44:07;;;;;;;8.48;6.00;;;;;;;8.55;100.00;100566.97;691207;28;2479;-43
2022/06/01 01:44:34;;;;;;;8.45;6.43;;;;;;;8.52;100.00;100567.84;690972;28;1543;-42
2022/06/01 01:45:25;;;;;;;7.68;6.07;;;;;;;8.46;100.00;100571.31;691631;28;1135;-43
2022/06/01 01:45:46;;;;;;;7.68;6.20;;;;;;;8.45;100.00;100566.94;687139;28;1413;-43
2022/06/01 01:46:06;;;;;;;7.97;6.40;;;;;;;8.45;100.00;100574.75;686758;28;4472;-42
2022/06/01 01:46:29;;;;;;;7.35;6.28;;;;;;;8.46;100.00;100575.63;688183;28;1282;-43
2022/06/01 01:46:50;;;;;;;7.75;6.10;;;;;;;8.44;100.00;100572.13;689709;28;1076;-45
2022/06/01 01:47:12;;;;;;;7.43;6.30;;;;;;;8.41;100.00;100570.38;689621;28;1179;-45
2022/06/01 01:47:36;;;;;;;7.40;6.60;;;;;;;8.42;100.00;100566.03;688963;28;1068;-44
2022/06/01 01:47:57;;;;;;;7.80;6.30;;;;;;;8.40;100.00;100576.44;686883;28;1105;-43
2022/06/01 01:48:17;;;;;;;7.65;6.63;;;;;;;8.36;100.00;100572.09;687829;28;1223;-43
2022/06/01 01:48:38;;;;;;;9.23;6.82;;;;;;;8.37;100.00;100572.97;688050;28;1262;-44
2022/06/01 01:48:59;;;;;;;9.47;6.60;;;;;;;8.39;100.00;100561.72;690667;28;1209;-43
2022/06/01 01:49:38;;;;;;;7.70;6.40;;;;;;;8.39;100.00;100564.31;685706;28;4484;-45
2022/06/01 01:49:58;;;;;;;8.00;6.55;;;;;;;8.37;100.00;100568.63;685861;28;1326;-44
2022/06/01 01:50:20;;;;;;;8.55;7.00;;;;;;;8.36;100.00;100564.28;687669;28;1250;-43
2022/06/01 01:50:41;;;;;;;8.00;6.60;;;;;;;8.36;100.00;100569.50;686114;28;1231;-43
2022/06/01 01:51:02;;;;;;;7.47;6.20;;;;;;;8.35;100.00;100565.16;688784;28;1977;-45
2022/06/01 01:51:25;;;;;;;8.73;7.03;;;;;;;8.37;100.00;100568.63;685189;28;1072;-45